createdAt,value
2018-11-06T00:01:23.162Z,26.37
2018-11-06T00:03:49.980Z,26.10
2018-11-06T00:06:16.050Z,24.03
2018-11-06T00:08:42.083Z,23.30
2018-11-06T00:11:08.127Z,24.30
2018-11-06T00:13:34.148Z,25.67
2018-11-06T00:16:00.152Z,24.60
2018-11-06T00:18:26.172Z,23.37
2018-11-06T00:20:52.484Z,23.77
2018-11-06T00:23:19.218Z,26.00
2018-11-06T00:25:45.209Z,28.40
2018-11-06T00:28:11.175Z,32.27
2018-11-06T00:30:37.972Z,28.97
2018-11-06T00:33:04.037Z,30.63
2018-11-06T00:35:30.805Z,24.77
2018-11-06T00:38:11.813Z,24.83
2018-11-06T00:40:37.860Z,26.57
2018-11-06T00:43:04.713Z,28.03
2018-11-06T00:45:31.012Z,25.37
2018-11-06T00:47:57.006Z,25.90
2018-11-06T00:50:23.019Z,28.10
2018-11-06T00:52:49.023Z,26.77
2018-11-06T00:55:15.829Z,25.43
2018-11-06T00:57:41.898Z,26.87
2018-11-06T01:00:17.909Z,28.50
2018-11-06T01:02:43.941Z,30.90
2018-11-06T01:05:09.933Z,30.87
2018-11-06T01:07:35.965Z,28.10
2018-11-06T01:10:01.970Z,24.00
2018-11-06T01:12:27.979Z,22.67
2018-11-06T01:14:53.978Z,23.00
2018-11-06T01:17:19.963Z,19.17
2018-11-06T01:19:45.942Z,24.53
2018-11-06T01:22:11.958Z,21.33
2018-11-06T01:24:37.973Z,21.20
2018-11-06T01:27:04.761Z,23.50
2018-11-06T01:29:30.786Z,22.00
2018-11-06T01:31:56.784Z,26.70
2018-11-06T01:34:22.780Z,29.90
2018-11-06T01:36:48.807Z,26.17
2018-11-06T01:39:14.810Z,24.27
2018-11-06T01:41:40.814Z,23.30
2018-11-06T01:44:06.815Z,20.70
2018-11-06T01:46:32.824Z,24.20
2018-11-06T01:48:58.869Z,21.17
2018-11-06T01:51:24.914Z,20.67
2018-11-06T01:53:51.177Z,21.30
2018-11-06T01:56:17.219Z,22.17
2018-11-06T01:58:44.008Z,26.37
2018-11-06T02:01:10.037Z,23.77
2018-11-06T02:03:36.104Z,21.93
2018-11-06T02:06:02.890Z,30.67
2018-11-06T02:08:28.956Z,26.53
2018-11-06T02:10:55.286Z,21.27
2018-11-06T02:13:21.304Z,26.63
2018-11-06T02:15:47.324Z,23.80
2018-11-06T02:18:13.348Z,25.33
2018-11-06T02:20:39.376Z,26.33
2018-11-06T02:23:05.426Z,23.20
2018-11-06T02:25:31.469Z,20.10
2018-11-06T02:27:57.521Z,22.67
2018-11-06T02:30:23.615Z,21.30
2018-11-06T02:32:49.636Z,22.80
2018-11-06T02:35:15.640Z,24.77
2018-11-06T02:37:42.461Z,23.33
2018-11-06T02:40:08.536Z,24.50
2018-11-06T02:42:34.559Z,21.33
2018-11-06T02:45:00.597Z,20.70
2018-11-06T02:47:26.641Z,20.93
2018-11-06T02:49:52.620Z,21.00
2018-11-06T02:52:19.411Z,21.30
2018-11-06T02:54:45.405Z,22.97
2018-11-06T02:57:11.439Z,20.17
2018-11-06T02:59:37.448Z,23.50
2018-11-06T03:02:03.472Z,21.90
2018-11-06T03:04:29.475Z,19.90
2018-11-06T03:06:55.496Z,23.93
2018-11-06T03:09:22.260Z,22.17
2018-11-06T03:11:48.316Z,19.17
2018-11-06T03:14:14.336Z,20.07
2018-11-06T03:16:40.358Z,24.17
2018-11-06T03:19:06.350Z,20.90
2018-11-06T03:21:32.337Z,22.77
2018-11-06T03:23:58.428Z,21.30
2018-11-06T03:26:24.514Z,24.60
2018-11-06T03:28:51.249Z,24.10
2018-11-06T03:31:17.253Z,22.30
2018-11-06T03:33:43.276Z,21.90
2018-11-06T03:36:09.286Z,20.47
2018-11-06T03:38:35.261Z,22.60
2018-11-06T03:41:01.272Z,21.00
2018-11-06T03:43:27.249Z,20.47
2018-11-06T03:45:53.227Z,19.33
2018-11-06T03:48:19.224Z,19.97
2018-11-06T03:50:45.943Z,19.00
2018-11-06T03:53:11.926Z,17.80
2018-11-06T03:55:37.905Z,18.77
2018-11-06T03:58:03.880Z,18.97
2018-11-06T04:00:29.949Z,18.17
2018-11-06T04:02:55.941Z,17.43
2018-11-06T04:05:22.361Z,23.50
2018-11-06T04:07:48.341Z,20.23
2018-11-06T04:10:15.097Z,21.60
2018-11-06T04:12:41.072Z,18.80
2018-11-06T04:15:07.057Z,19.40
2018-11-06T04:17:33.039Z,19.60
2018-11-06T04:19:59.027Z,18.00
2018-11-06T04:22:25.010Z,17.23
2018-11-06T04:24:50.984Z,16.63
2018-11-06T04:27:16.966Z,16.87
2018-11-06T04:29:42.982Z,15.60
2018-11-06T04:32:09.695Z,15.57
2018-11-06T04:34:35.672Z,17.50
2018-11-06T04:37:01.686Z,18.60
2018-11-06T04:39:27.667Z,17.20
2018-11-06T04:41:54.385Z,17.40
2018-11-06T04:44:20.453Z,19.43
2018-11-06T04:46:46.438Z,21.27
2018-11-06T04:49:12.433Z,20.17
2018-11-06T04:51:38.389Z,19.70
2018-11-06T04:54:04.382Z,18.30
2018-11-06T04:56:30.341Z,18.47
2018-11-06T04:58:56.325Z,16.50
2018-11-06T05:01:22.317Z,17.27
2018-11-06T05:03:48.311Z,16.83
2018-11-06T05:06:14.293Z,16.67
2018-11-06T05:08:40.280Z,14.87
2018-11-06T05:11:06.274Z,16.90
2018-11-06T05:13:32.258Z,18.03
2018-11-06T05:15:58.227Z,22.20
2018-11-06T05:18:24.218Z,20.97
2018-11-06T05:20:50.178Z,18.60
2018-11-06T05:23:16.158Z,18.97
2018-11-06T05:25:42.158Z,19.37
2018-11-06T05:28:08.129Z,23.90
2018-11-06T05:30:34.117Z,19.40
2018-11-06T05:33:00.126Z,20.23
2018-11-06T05:35:26.836Z,21.90
2018-11-06T05:37:53.568Z,20.73
2018-11-06T05:40:42.513Z,20.50
2018-11-06T05:43:08.517Z,22.77
2018-11-06T05:45:34.604Z,21.87
2018-11-06T05:48:00.573Z,23.27
2018-11-06T05:50:26.556Z,24.23
2018-11-06T05:52:52.535Z,19.20
2018-11-06T05:55:18.528Z,22.40
2018-11-06T05:57:44.500Z,21.10
2018-11-06T06:00:11.212Z,23.10
2018-11-06T06:02:37.210Z,23.70
2018-11-06T06:05:03.192Z,25.00
2018-11-06T06:07:29.912Z,23.90
2018-11-06T06:09:55.899Z,18.60
2018-11-06T06:12:21.876Z,19.50
2018-11-06T06:14:48.636Z,22.17
2018-11-06T06:17:14.682Z,19.13
2018-11-06T06:19:40.612Z,20.60
2018-11-06T06:22:06.593Z,20.80
2018-11-06T06:24:33.324Z,19.63
2018-11-06T06:27:00.040Z,19.90
2018-11-06T06:29:26.028Z,18.90
2018-11-06T06:31:52.036Z,20.17
2018-11-06T06:34:18.038Z,20.93
2018-11-06T06:36:44.740Z,25.23
2018-11-06T06:39:10.732Z,22.03
2018-11-06T06:41:36.721Z,27.50
2018-11-06T06:44:03.443Z,32.60
2018-11-06T06:46:29.529Z,28.67
2018-11-06T06:48:55.414Z,24.53
2018-11-06T06:51:21.373Z,22.33
2018-11-06T06:53:47.364Z,25.30
2018-11-06T06:56:14.100Z,20.23
2018-11-06T06:58:40.078Z,21.70
2018-11-06T07:01:06.079Z,25.33
2018-11-06T07:03:32.061Z,24.63
2018-11-06T07:05:58.793Z,21.93
2018-11-06T07:08:24.768Z,19.87
2018-11-06T07:10:50.758Z,20.20
2018-11-06T07:13:17.504Z,21.00
2018-11-06T07:15:43.487Z,17.97
2018-11-06T07:18:09.476Z,18.00
2018-11-06T07:20:35.473Z,20.10
2018-11-06T07:23:01.441Z,18.63
2018-11-06T07:25:27.448Z,18.93
2018-11-06T07:27:53.445Z,16.40
2018-11-06T07:30:26.456Z,18.43
2018-11-06T07:32:52.434Z,16.53
2018-11-06T07:35:19.253Z,17.80
2018-11-06T07:37:45.191Z,16.90
2018-11-06T07:40:11.182Z,16.20
2018-11-06T07:42:37.179Z,16.47
2018-11-06T07:45:03.188Z,17.17
2018-11-06T07:47:29.169Z,18.60
2018-11-06T07:49:55.307Z,19.50
2018-11-06T07:52:21.953Z,18.07
2018-11-06T07:54:48.716Z,19.30
2018-11-06T07:57:14.746Z,21.50
2018-11-06T07:59:40.775Z,20.37
2018-11-06T08:02:06.804Z,22.47
2018-11-06T08:04:32.840Z,24.13
2018-11-06T08:06:58.905Z,25.83
2018-11-06T08:09:24.996Z,23.47
2018-11-06T08:11:51.052Z,21.80
2018-11-06T08:14:17.097Z,20.50
2018-11-06T08:16:43.874Z,21.30
2018-11-06T08:19:09.919Z,22.47
2018-11-06T08:21:35.947Z,21.17
2018-11-06T08:24:02.072Z,21.80
2018-11-06T08:26:28.779Z,22.57
2018-11-06T08:28:54.834Z,21.53
2018-11-06T08:31:21.302Z,20.23
2018-11-06T08:33:46.973Z,21.13
2018-11-06T08:36:13.017Z,23.27
2018-11-06T08:38:39.028Z,20.90
2018-11-06T08:41:05.071Z,21.13
2018-11-06T08:43:31.111Z,20.40
2018-11-06T08:45:57.916Z,20.57
2018-11-06T08:48:23.970Z,21.30
2018-11-06T08:50:50.006Z,21.77
2018-11-06T08:53:16.793Z,21.60
2018-11-06T08:55:42.810Z,21.33
2018-11-06T08:58:08.825Z,21.67
2018-11-06T09:00:34.862Z,22.87
2018-11-06T09:03:01.117Z,21.87
2018-11-06T09:05:27.281Z,22.50
2018-11-06T09:07:54.065Z,20.67
2018-11-06T09:10:20.103Z,19.93
2018-11-06T09:12:46.152Z,23.50
2018-11-06T09:15:12.965Z,20.53
2018-11-06T09:17:38.968Z,20.43
2018-11-06T09:20:04.950Z,21.17
2018-11-06T09:22:30.924Z,21.53
2018-11-06T09:24:56.922Z,23.37
2018-11-06T09:27:22.926Z,22.70
2018-11-06T09:29:49.649Z,25.03
2018-11-06T09:32:15.636Z,26.00
2018-11-06T09:34:41.628Z,27.70
2018-11-06T09:37:08.337Z,27.93
2018-11-06T09:39:34.320Z,27.93
2018-11-06T09:42:00.313Z,26.90
2018-11-06T09:44:26.317Z,23.60
2018-11-06T09:46:52.309Z,27.70
2018-11-06T09:49:18.333Z,26.10
2018-11-06T09:51:44.296Z,30.10
2018-11-06T09:54:10.363Z,27.90
2018-11-06T09:56:36.358Z,26.00
2018-11-06T09:59:03.117Z,24.67
2018-11-06T10:01:29.134Z,26.70
2018-11-06T10:03:55.121Z,27.20
2018-11-06T10:06:21.193Z,24.03
2018-11-06T10:08:47.097Z,25.50
2018-11-06T10:11:13.066Z,27.53
2018-11-06T10:13:45.816Z,25.20
2018-11-06T10:16:11.790Z,26.57
2018-11-06T10:18:37.804Z,23.90
2018-11-06T10:21:03.810Z,23.83
2018-11-06T10:23:29.791Z,24.80
2018-11-06T10:25:56.516Z,23.27
2018-11-06T10:28:23.291Z,25.80
2018-11-06T10:30:49.356Z,22.70
2018-11-06T10:33:15.281Z,24.63
2018-11-06T10:35:41.596Z,23.60
2018-11-06T10:38:07.926Z,24.93
2018-11-06T10:40:34.416Z,23.33
2018-11-06T10:43:00.906Z,23.80
2018-11-06T10:45:27.477Z,23.30
2018-11-06T10:47:53.969Z,24.83
2018-11-06T10:50:20.648Z,24.20
2018-11-06T10:52:47.084Z,24.40
2018-11-06T10:55:13.617Z,23.13
2018-11-06T10:57:40.081Z,23.30
2018-11-06T11:00:06.668Z,23.93
2018-11-06T11:02:33.287Z,23.90
2018-11-06T11:04:59.703Z,24.87
2018-11-06T11:07:25.784Z,21.80
2018-11-06T11:09:52.243Z,25.63
2018-11-06T11:12:19.547Z,23.83
2018-11-06T11:14:47.548Z,22.53
2018-11-06T11:17:14.159Z,22.20
2018-11-06T11:19:40.800Z,22.37
2018-11-06T11:22:07.439Z,24.60
2018-11-06T11:24:34.019Z,25.13
2018-11-06T11:27:00.553Z,23.87
2018-11-06T11:29:27.946Z,23.90
2018-11-06T11:31:54.456Z,23.83
2018-11-06T11:34:21.930Z,24.50
2018-11-06T11:36:48.501Z,24.60
2018-11-06T11:39:15.068Z,24.63
2018-11-06T11:41:41.650Z,24.57
2018-11-06T11:44:08.198Z,24.30
2018-11-06T11:46:34.782Z,24.50
2018-11-06T11:49:01.308Z,25.77
2018-11-06T11:51:29.130Z,24.97
2018-11-06T11:53:55.717Z,24.97
2018-11-06T11:56:22.933Z,26.13
2018-11-06T11:58:49.462Z,27.00
2018-11-06T12:01:15.685Z,24.37
2018-11-06T12:03:42.297Z,24.13
2018-11-06T12:06:08.846Z,25.83
2018-11-06T12:08:35.297Z,26.23
2018-11-06T12:11:01.793Z,26.93
2018-11-06T12:13:28.314Z,27.93
2018-11-06T12:15:54.751Z,26.03
2018-11-06T12:18:21.126Z,25.63
2018-11-06T12:20:47.368Z,24.33
2018-11-06T12:23:13.588Z,25.03
2018-11-06T12:25:40.208Z,27.27
2018-11-06T12:28:06.661Z,27.50
2018-11-06T12:30:33.302Z,28.10
2018-11-06T12:32:59.837Z,24.80
2018-11-06T12:35:26.481Z,26.33
2018-11-06T12:37:53.097Z,26.53
2018-11-06T12:40:19.636Z,26.80
2018-11-06T12:42:46.083Z,25.70
2018-11-06T12:45:12.723Z,25.30
2018-11-06T12:47:42.108Z,25.50
2018-11-06T12:50:08.549Z,25.73
2018-11-06T12:52:34.941Z,27.10
2018-11-06T12:55:01.118Z,24.87
2018-11-06T12:57:27.663Z,24.43
2018-11-06T12:59:54.158Z,26.10
2018-11-06T13:02:20.982Z,24.63
2018-11-06T13:04:47.464Z,25.53
2018-11-06T13:07:13.812Z,26.10
2018-11-06T13:09:40.165Z,23.80
2018-11-06T13:12:07.385Z,24.37
2018-11-06T13:14:33.954Z,25.70
2018-11-06T13:17:00.068Z,24.40
2018-11-06T13:19:26.376Z,23.97
2018-11-06T13:21:52.792Z,24.73
2018-11-06T13:24:19.276Z,23.30
2018-11-06T13:26:45.820Z,24.87
2018-11-06T13:29:12.439Z,23.00
2018-11-06T13:31:39.066Z,23.20
2018-11-06T13:34:05.983Z,25.70
2018-11-06T13:36:32.583Z,22.60
2018-11-06T13:38:59.281Z,22.63
2018-11-06T13:41:25.970Z,21.90
2018-11-06T13:43:52.913Z,22.60
2018-11-06T13:46:19.503Z,22.07
2018-11-06T13:48:46.135Z,21.60
2018-11-06T13:51:12.948Z,21.30
2018-11-06T13:53:38.962Z,21.77
2018-11-06T13:56:04.992Z,23.03
2018-11-06T13:58:31.036Z,19.23
2018-11-06T14:00:57.044Z,20.90
2018-11-06T14:03:30.204Z,20.80
2018-11-06T14:05:56.274Z,20.63
2018-11-06T14:08:22.485Z,21.30
2018-11-06T14:10:48.528Z,21.77
2018-11-06T14:13:14.580Z,20.30
2018-11-06T14:15:40.762Z,20.77
2018-11-06T14:18:07.002Z,20.77
2018-11-06T14:20:33.152Z,20.00
2018-11-06T14:22:59.575Z,21.37
2018-11-06T14:25:25.645Z,20.27
2018-11-06T14:27:51.700Z,21.27
2018-11-06T14:30:17.657Z,23.50
2018-11-06T14:32:43.647Z,20.50
2018-11-06T14:35:09.614Z,21.63
2018-11-06T14:37:35.582Z,20.40
2018-11-06T14:40:01.969Z,21.97
2018-11-06T14:42:28.052Z,22.40
2018-11-06T14:44:53.983Z,21.50
2018-11-06T14:47:19.960Z,23.87
2018-11-06T14:49:46.661Z,23.53
2018-11-06T14:52:12.652Z,23.17
2018-11-06T14:54:38.652Z,21.23
2018-11-06T14:57:04.648Z,20.97
2018-11-06T14:59:30.618Z,20.00
2018-11-06T15:01:56.649Z,20.43
2018-11-06T15:04:22.632Z,21.70
2018-11-06T15:06:49.378Z,20.80
2018-11-06T15:09:15.419Z,20.00
2018-11-06T15:11:41.402Z,22.20
2018-11-06T15:14:07.475Z,21.87
2018-11-06T15:16:33.577Z,23.10
2018-11-06T15:19:00.321Z,22.17
2018-11-06T15:21:27.049Z,22.40
2018-11-06T15:23:53.058Z,23.33
2018-11-06T15:26:19.039Z,23.70
2018-11-06T15:28:45.417Z,23.10
2018-11-06T15:31:12.262Z,23.87
2018-11-06T15:33:38.999Z,25.23
2018-11-06T15:36:04.993Z,26.33
2018-11-06T15:38:31.053Z,24.20
2018-11-06T15:40:57.107Z,22.60
2018-11-06T15:43:23.067Z,23.03
2018-11-06T15:45:49.057Z,24.67
2018-11-06T15:48:15.279Z,27.53
2018-11-06T15:50:41.310Z,28.47
2018-11-06T15:53:07.288Z,27.87
2018-11-06T15:55:33.583Z,28.70
2018-11-06T15:57:59.614Z,26.67
2018-11-06T16:00:25.831Z,24.90
2018-11-06T16:02:51.889Z,24.80
2018-11-06T16:05:17.897Z,31.07
2018-11-06T16:07:43.905Z,33.50
2018-11-06T16:10:10.669Z,37.77
2018-11-06T16:12:36.664Z,37.10
2018-11-06T16:15:03.266Z,31.10
2018-11-06T16:17:29.377Z,32.40
2018-11-06T16:19:55.781Z,28.80
2018-11-06T16:22:21.794Z,27.40
2018-11-06T16:24:47.786Z,26.90
2018-11-06T16:27:14.533Z,29.13
2018-11-06T16:29:40.534Z,24.93
2018-11-06T16:32:06.499Z,26.37
2018-11-06T16:34:33.009Z,25.10
2018-11-06T16:36:59.421Z,25.90
2018-11-06T16:39:25.503Z,27.30
2018-11-06T16:41:51.795Z,25.87
2018-11-06T16:44:18.070Z,25.13
2018-11-06T16:46:44.142Z,25.60
2018-11-06T16:49:10.521Z,22.40
2018-11-06T16:51:36.556Z,21.93
2018-11-06T16:54:02.529Z,21.97
2018-11-06T16:56:29.328Z,21.87
2018-11-06T16:58:55.388Z,21.87
2018-11-06T17:01:22.140Z,22.03
2018-11-06T17:03:48.108Z,22.70
2018-11-06T17:06:14.104Z,21.87
2018-11-06T17:08:40.110Z,22.30
2018-11-06T17:11:06.323Z,21.57
2018-11-06T17:13:32.333Z,20.30
2018-11-06T17:15:58.322Z,18.73
2018-11-06T17:18:24.317Z,19.37
2018-11-06T17:20:50.289Z,20.10
2018-11-06T17:23:16.303Z,22.30
2018-11-06T17:25:42.293Z,20.50
2018-11-06T17:28:09.012Z,22.17
2018-11-06T17:30:35.761Z,25.43
2018-11-06T17:33:01.749Z,25.07
2018-11-06T17:35:27.768Z,26.13
2018-11-06T17:37:53.785Z,25.37
2018-11-06T17:40:19.842Z,28.83
2018-11-06T17:42:45.860Z,28.40
2018-11-06T17:45:11.922Z,25.13
2018-11-06T17:47:37.848Z,27.60
2018-11-06T17:50:03.812Z,27.57
2018-11-06T17:52:29.817Z,29.43
2018-11-06T17:54:55.858Z,28.83
2018-11-06T17:57:21.811Z,26.30
2018-11-06T17:59:48.568Z,29.27
2018-11-06T18:02:14.611Z,28.33
2018-11-06T18:04:40.629Z,27.77
2018-11-06T18:07:06.567Z,28.47
2018-11-06T18:09:32.549Z,28.30
2018-11-06T18:11:59.325Z,29.17
2018-11-06T18:14:25.294Z,32.60
2018-11-06T18:17:01.337Z,36.00
2018-11-06T18:19:27.337Z,37.97
2018-11-06T18:21:53.357Z,32.40
2018-11-06T18:24:19.388Z,30.13
2018-11-06T18:26:45.455Z,30.80
2018-11-06T18:29:11.428Z,30.87
2018-11-06T18:31:37.498Z,29.00
2018-11-06T18:34:03.417Z,29.63
2018-11-06T18:36:29.640Z,29.33
2018-11-06T18:38:56.000Z,29.90
2018-11-06T18:41:22.478Z,30.97
2018-11-06T18:43:48.607Z,29.07
2018-11-06T18:46:15.098Z,28.80
2018-11-06T18:48:41.301Z,30.00
2018-11-06T18:51:07.307Z,30.47
2018-11-06T18:53:33.560Z,30.30
2018-11-06T18:55:59.870Z,29.83
2018-11-06T18:58:25.990Z,29.97
2018-11-06T19:00:51.977Z,29.30
2018-11-06T19:03:17.956Z,28.83
2018-11-06T19:05:43.963Z,29.70
2018-11-06T19:08:09.933Z,29.67
2018-11-06T19:10:36.236Z,27.60
2018-11-06T19:13:02.271Z,29.80
2018-11-06T19:15:28.338Z,29.43
2018-11-06T19:17:54.785Z,28.83
2018-11-06T19:20:20.884Z,30.47
2018-11-06T19:22:46.947Z,29.63
2018-11-06T19:25:12.949Z,29.10
2018-11-06T19:27:38.980Z,31.53
2018-11-06T19:30:05.012Z,32.47
2018-11-06T19:32:31.108Z,31.90
2018-11-06T19:34:57.131Z,31.87
2018-11-06T19:37:23.327Z,32.50
2018-11-06T19:39:50.070Z,32.50
2018-11-06T19:42:16.124Z,32.43
2018-11-06T19:44:42.241Z,34.73
2018-11-06T19:47:08.287Z,31.17
2018-11-06T19:49:34.423Z,30.97
2018-11-06T19:52:00.598Z,33.20
2018-11-06T19:54:27.363Z,33.60
2018-11-06T19:56:53.718Z,34.07
2018-11-06T19:59:19.782Z,31.60
2018-11-06T20:01:47.547Z,31.43
2018-11-06T20:04:13.604Z,33.27
2018-11-06T20:06:40.276Z,33.03
2018-11-06T20:09:06.386Z,32.90
2018-11-06T20:11:32.474Z,34.40
2018-11-06T20:13:59.240Z,34.20
2018-11-06T20:16:25.230Z,31.83
2018-11-06T20:18:51.230Z,35.10
2018-11-06T20:21:17.261Z,36.40
2018-11-06T20:23:43.602Z,35.47
2018-11-06T20:26:09.490Z,39.07
2018-11-06T20:28:35.513Z,37.23
2018-11-06T20:31:01.717Z,37.40
2018-11-06T20:33:27.896Z,38.23
2018-11-06T20:35:53.768Z,36.97
2018-11-06T20:38:21.064Z,37.23
2018-11-06T20:40:47.196Z,37.63
2018-11-06T20:43:13.320Z,39.50
2018-11-06T20:45:39.258Z,35.80
2018-11-06T20:48:05.376Z,36.77
2018-11-06T20:50:31.506Z,41.40
2018-11-06T20:52:58.391Z,39.93
2018-11-06T20:55:25.239Z,40.30
2018-11-06T20:58:02.186Z,40.60
2018-11-06T21:00:28.420Z,40.20
2018-11-06T21:02:55.291Z,41.17
2018-11-06T21:05:21.305Z,44.20
2018-11-06T21:07:47.306Z,40.53
2018-11-06T21:10:14.036Z,42.33
2018-11-06T21:12:40.897Z,40.30
2018-11-06T21:15:07.642Z,37.67
2018-11-06T21:17:33.677Z,38.23
2018-11-06T21:19:59.786Z,41.57
2018-11-06T21:22:25.704Z,41.47
2018-11-06T21:24:52.526Z,37.20
2018-11-06T21:27:18.564Z,40.93
2018-11-06T21:29:44.556Z,42.40
2018-11-06T21:32:10.572Z,41.80
2018-11-06T21:34:36.575Z,41.33
2018-11-06T21:37:02.900Z,39.70
2018-11-06T21:39:29.693Z,39.77
2018-11-06T21:41:55.834Z,37.73
2018-11-06T21:44:21.793Z,39.40
2018-11-06T21:46:47.772Z,37.23
2018-11-06T21:49:13.762Z,37.33
2018-11-06T21:51:39.739Z,38.80
2018-11-06T21:54:05.710Z,38.23
2018-11-06T21:56:31.677Z,39.83
2018-11-06T21:58:58.393Z,38.97
2018-11-06T22:01:24.352Z,39.90
2018-11-06T22:03:51.081Z,38.90
2018-11-06T22:06:17.795Z,40.03
2018-11-06T22:08:43.775Z,36.90
2018-11-06T22:11:09.740Z,40.73
2018-11-06T22:13:35.729Z,35.53
2018-11-06T22:16:01.707Z,34.83
2018-11-06T22:18:27.733Z,31.10
2018-11-06T22:20:53.741Z,36.33
2018-11-06T22:23:19.725Z,34.23
2018-11-06T22:25:45.696Z,34.47
2018-11-06T22:28:12.418Z,33.43
2018-11-06T22:30:38.409Z,32.10
2018-11-06T22:33:04.451Z,32.97
2018-11-06T22:35:30.377Z,33.80
2018-11-06T22:37:56.396Z,32.57
2018-11-06T22:40:23.093Z,33.33
2018-11-06T22:42:49.065Z,32.10
2018-11-06T22:45:15.048Z,35.97
2018-11-06T22:47:41.065Z,34.73
2018-11-06T22:50:07.052Z,35.97
2018-11-06T22:52:33.016Z,34.20
2018-11-06T22:54:59.022Z,33.43
2018-11-06T22:57:25.759Z,33.60
2018-11-06T22:59:51.743Z,32.73
2018-11-06T23:02:24.849Z,31.50
2018-11-06T23:04:50.842Z,32.37
2018-11-06T23:07:16.996Z,31.00
2018-11-06T23:09:42.846Z,33.93
2018-11-06T23:12:09.682Z,31.63
2018-11-06T23:14:36.462Z,32.13
2018-11-06T23:17:02.473Z,32.50
2018-11-06T23:19:28.473Z,32.10
2018-11-06T23:21:55.192Z,32.70
2018-11-06T23:24:21.192Z,30.10
2018-11-06T23:26:47.203Z,28.63
2018-11-06T23:29:13.204Z,30.03
2018-11-06T23:31:39.263Z,30.03
2018-11-06T23:34:05.929Z,30.67
2018-11-06T23:36:31.912Z,30.73
2018-11-06T23:38:57.898Z,30.40
2018-11-06T23:41:24.622Z,29.30
2018-11-06T23:43:50.617Z,29.30
2018-11-06T23:46:16.609Z,30.60
2018-11-06T23:48:42.585Z,29.10
2018-11-06T23:51:08.576Z,31.10
2018-11-06T23:53:34.608Z,30.30
2018-11-06T23:56:01.394Z,31.53
2018-11-06T23:58:28.117Z,30.37
